sensor_id;sensor_type;location;lat;lon;timestamp;noise_LAeq;noise_LA_min;noise_LA_max;noise_LA01;noise_LA95
69619;Laerm;57653;51.434;5.984;2023-03-14T00:00:09;38.75;36.53;41.01;;
69619;Laerm;57653;51.434;5.984;2023-03-14T00:00:21;46.79;37.94;60.68;;
69619;Laerm;57653;51.434;5.984;2023-03-14T00:00:31;41.17;36.47;57.30;;
69619;Laerm;57653;51.434;5.984;2023-03-14T00:00:41;37.96;35.67;45.78;;
69619;Laerm;57653;51.434;5.984;2023-03-14T00:00:52;37.38;34.96;40.15;;
69619;Laerm;57653;51.434;5.984;2023-03-14T00:01:35;37.54;35.65;40.46;;
69619;Laerm;57653;51.434;5.984;2023-03-14T00:01:39;40.61;36.78;44.04;;
69619;Laerm;57653;51.434;5.984;2023-03-14T00:01:49;38.49;36.39;43.88;;
69619;Laerm;57653;51.434;5.984;2023-03-14T00:01:59;40.07;37.47;42.51;;
69619;Laerm;57653;51.434;5.984;2023-03-14T00:02:09;40.53;38.78;42.46;;
69619;Laerm;57653;51.434;5.984;2023-03-14T00:02:20;38.80;36.93;41.99;;
69619;Laerm;57653;51.434;5.984;2023-03-14T00:02:30;38.77;37.09;42.49;;
69619;Laerm;57653;51.434;5.984;2023-03-14T00:02:40;40.60;37.92;42.81;;
69619;Laerm;57653;51.434;5.984;2023-03-14T00:02:51;41.11;39.13;43.08;;
69619;Laerm;57653;51.434;5.984;2023-03-14T00:03:02;40.29;37.79;43.99;;
69619;Laerm;57653;51.434;5.984;2023-03-14T00:03:12;39.93;36.63;54.18;;
69619;Laerm;57653;51.434;5.984;2023-03-14T00:03:22;39.72;37.06;43.83;;
69619;Laerm;57653;51.434;5.984;2023-03-14T00:03:32;38.66;36.10;42.40;;
69619;Laerm;57653;51.434;5.984;2023-03-14T00:03:43;38.53;36.50;45.07;;
69619;Laerm;57653;51.434;5.984;2023-03-14T00:03:53;37.67;36.21;39.34;;
69619;Laerm;57653;51.434;5.984;2023-03-14T00:04:04;38.12;36.76;39.37;;
69619;Laerm;57653;51.434;5.984;2023-03-14T00:04:15;38.57;36.39;40.90;;
69619;Laerm;57653;51.434;5.984;2023-03-14T00:04:25;38.11;36.31;39.64;;
69619;Laerm;57653;51.434;5.984;2023-03-14T00:04:36;38.47;37.09;39.63;;
69619;Laerm;57653;51.434;5.984;2023-03-14T00:04:46;37.44;35.47;39.43;;
69619;Laerm;57653;51.434;5.984;2023-03-14T00:04:56;36.36;35.15;37.77;;
69619;Laerm;57653;51.434;5.984;2023-03-14T00:05:07;36.80;35.07;38.14;;
69619;Laerm;57653;51.434;5.984;2023-03-14T00:05:17;36.60;34.71;38.56;;
69619;Laerm;57653;51.434;5.984;2023-03-14T00:05:28;36.38;34.69;37.68;;
69619;Laerm;57653;51.434;5.984;2023-03-14T00:05:38;37.45;35.42;40.25;;
69619;Laerm;57653;51.434;5.984;2023-03-14T00:05:48;37.35;35.65;39.32;;
69619;Laerm;57653;51.434;5.984;2023-03-14T00:06:01;38.14;36.70;39.69;;
69619;Laerm;57653;51.434;5.984;2023-03-14T00:06:12;39.82;37.84;42.13;;
69619;Laerm;57653;51.434;5.984;2023-03-14T00:06:23;39.85;37.07;42.45;;
69619;Laerm;57653;51.434;5.984;2023-03-14T00:06:34;38.24;36.72;39.75;;
69619;Laerm;57653;51.434;5.984;2023-03-14T00:06:44;38.96;37.11;41.29;;
69619;Laerm;57653;51.434;5.984;2023-03-14T00:06:56;41.69;38.50;45.93;;
69619;Laerm;57653;51.434;5.984;2023-03-14T00:07:07;41.78;39.42;45.44;;
69619;Laerm;57653;51.434;5.984;2023-03-14T00:07:17;43.96;40.27;52.53;;
69619;Laerm;57653;51.434;5.984;2023-03-14T00:07:27;41.27;38.83;46.85;;
69619;Laerm;57653;51.434;5.984;2023-03-14T00:07:41;43.65;39.21;59.27;;
69619;Laerm;57653;51.434;5.984;2023-03-14T00:07:52;39.54;37.03;48.61;;
69619;Laerm;57653;51.434;5.984;2023-03-14T00:08:02;39.49;37.29;42.58;;
69619;Laerm;57653;51.434;5.984;2023-03-14T00:08:12;38.15;36.29;48.13;;
69619;Laerm;57653;51.434;5.984;2023-03-14T00:08:23;37.90;35.20;45.99;;
69619;Laerm;57653;51.434;5.984;2023-03-14T00:08:35;37.57;35.69;39.62;;
69619;Laerm;57653;51.434;5.984;2023-03-14T00:08:45;39.44;36.30;56.45;;
69619;Laerm;57653;51.434;5.984;2023-03-14T00:08:55;39.68;35.69;57.93;;
69619;Laerm;57653;51.434;5.984;2023-03-14T00:09:06;36.53;35.02;38.26;;
69619;Laerm;57653;51.434;5.984;2023-03-14T00:09:17;36.88;35.33;38.45;;
69619;Laerm;57653;51.434;5.984;2023-03-14T00:09:27;38.10;36.09;39.89;;
69619;Laerm;57653;51.434;5.984;2023-03-14T00:09:39;38.38;36.55;39.84;;
69619;Laerm;57653;51.434;5.984;2023-03-14T00:09:50;39.38;36.97;49.79;;
69619;Laerm;57653;51.434;5.984;2023-03-14T00:10:01;42.08;36.75;60.36;;
69619;Laerm;57653;51.434;5.984;2023-03-14T00:10:13;43.74;36.28;62.07;;
69619;Laerm;57653;51.434;5.984;2023-03-14T00:10:23;37.49;35.53;43.24;;
69619;Laerm;57653;51.434;5.984;2023-03-14T00:10:35;38.41;36.37;40.87;;
69619;Laerm;57653;51.434;5.984;2023-03-14T00:10:45;48.21;38.19;55.68;;
69619;Laerm;57653;51.434;5.984;2023-03-14T00:10:56;59.29;52.84;61.45;;
69619;Laerm;57653;51.434;5.984;2023-03-14T00:11:08;61.99;58.23;65.08;;
69619;Laerm;57653;51.434;5.984;2023-03-14T00:11:20;51.94;36.24;61.14;;
69619;Laerm;57653;51.434;5.984;2023-03-14T00:11:31;38.07;35.15;47.53;;
69619;Laerm;57653;51.434;5.984;2023-03-14T00:11:41;38.59;36.48;41.60;;
69619;Laerm;57653;51.434;5.984;2023-03-14T00:11:52;38.67;36.45;40.74;;
69619;Laerm;57653;51.434;5.984;2023-03-14T00:12:03;37.77;36.21;40.11;;
69619;Laerm;57653;51.434;5.984;2023-03-14T00:12:13;37.83;35.31;40.67;;
69619;Laerm;57653;51.434;5.984;2023-03-14T00:12:24;38.18;35.46;53.29;;
69619;Laerm;57653;51.434;5.984;2023-03-14T00:12:34;37.44;35.74;41.79;;
69619;Laerm;57653;51.434;5.984;2023-03-14T00:12:45;36.77;35.18;41.51;;
69619;Laerm;57653;51.434;5.984;2023-03-14T00:12:55;36.28;34.93;42.04;;
69619;Laerm;57653;51.434;5.984;2023-03-14T00:13:05;35.66;34.13;36.78;;
69619;Laerm;57653;51.434;5.984;2023-03-14T00:13:16;35.32;33.87;36.66;;
69619;Laerm;57653;51.434;5.984;2023-03-14T00:13:26;35.55;34.15;36.80;;
69619;Laerm;57653;51.434;5.984;2023-03-14T00:13:36;35.99;34.47;38.21;;
69619;Laerm;57653;51.434;5.984;2023-03-14T00:13:50;35.79;34.32;38.49;;
69619;Laerm;57653;51.434;5.984;2023-03-14T00:14:01;36.51;34.85;39.21;;
69619;Laerm;57653;51.434;5.984;2023-03-14T00:14:11;36.90;35.50;38.58;;
69619;Laerm;57653;51.434;5.984;2023-03-14T00:14:21;36.45;34.56;38.21;;
69619;Laerm;57653;51.434;5.984;2023-03-14T00:14:32;36.10;34.18;37.42;;
69619;Laerm;57653;51.434;5.984;2023-03-14T00:14:42;35.97;34.29;37.40;;
69619;Laerm;57653;51.434;5.984;2023-03-14T00:14:53;35.09;33.60;36.69;;
69619;Laerm;57653;51.434;5.984;2023-03-14T00:15:04;35.40;33.88;36.97;;
69619;Laerm;57653;51.434;5.984;2023-03-14T00:15:16;36.96;35.09;40.82;;
69619;Laerm;57653;51.434;5.984;2023-03-14T00:15:27;37.28;35.75;38.74;;
69619;Laerm;57653;51.434;5.984;2023-03-14T00:15:37;36.80;35.05;38.45;;
69619;Laerm;57653;51.434;5.984;2023-03-14T00:15:47;35.82;34.61;37.14;;
69619;Laerm;57653;51.434;5.984;2023-03-14T00:16:01;36.12;34.55;37.94;;
69619;Laerm;57653;51.434;5.984;2023-03-14T00:16:12;37.04;34.96;38.40;;
69619;Laerm;57653;51.434;5.984;2023-03-14T00:16:22;36.85;35.09;38.35;;
69619;Laerm;57653;51.434;5.984;2023-03-14T00:16:32;35.90;34.34;37.83;;
69619;Laerm;57653;51.434;5.984;2023-03-14T00:16:45;36.42;34.85;37.85;;
69619;Laerm;57653;51.434;5.984;2023-03-14T00:16:55;36.70;35.02;43.12;;
69619;Laerm;57653;51.434;5.984;2023-03-14T00:17:06;36.35;34.62;37.75;;
69619;Laerm;57653;51.434;5.984;2023-03-14T00:17:16;36.62;34.79;38.06;;
69619;Laerm;57653;51.434;5.984;2023-03-14T00:17:26;36.59;34.53;38.20;;
69619;Laerm;57653;51.434;5.984;2023-03-14T00:17:37;36.58;35.05;38.48;;
69619;Laerm;57653;51.434;5.984;2023-03-14T00:17:47;37.07;34.65;40.13;;
69619;Laerm;57653;51.434;5.984;2023-03-14T00:17:58;59.75;39.27;65.20;;
69619;Laerm;57653;51.434;5.984;2023-03-14T00:18:08;63.23;59.66;67.85;;
69619;Laerm;57653;51.434;5.984;2023-03-14T00:18:18;55.32;44.52;62.05;;
69619;Laerm;57653;51.434;5.984;2023-03-14T00:18:29;43.60;39.50;50.94;;
69619;Laerm;57653;51.434;5.984;2023-03-14T00:18:40;39.44;36.85;42.12;;
69619;Laerm;57653;51.434;5.984;2023-03-14T00:18:50;37.69;35.57;39.97;;
69619;Laerm;57653;51.434;5.984;2023-03-14T00:19:01;37.38;35.76;38.82;;
69619;Laerm;57653;51.434;5.984;2023-03-14T00:19:11;36.84;35.00;45.67;;
69619;Laerm;57653;51.434;5.984;2023-03-14T00:19:21;36.07;34.69;45.40;;
69619;Laerm;57653;51.434;5.984;2023-03-14T00:19:32;35.81;34.35;41.43;;
69619;Laerm;57653;51.434;5.984;2023-03-14T00:19:42;35.17;33.63;36.32;;
69619;Laerm;57653;51.434;5.984;2023-03-14T00:19:52;35.92;34.33;37.59;;
69619;Laerm;57653;51.434;5.984;2023-03-14T00:20:04;38.18;35.13;41.14;;
69619;Laerm;57653;51.434;5.984;2023-03-14T00:20:18;40.78;36.40;55.31;;
69619;Laerm;57653;51.434;5.984;2023-03-14T00:20:28;38.99;37.19;45.21;;
69619;Laerm;57653;51.434;5.984;2023-03-14T00:20:38;37.63;35.70;40.91;;
69619;Laerm;57653;51.434;5.984;2023-03-14T00:20:49;37.84;36.28;39.45;;
69619;Laerm;57653;51.434;5.984;2023-03-14T00:20:59;37.44;36.19;39.00;;
69619;Laerm;57653;51.434;5.984;2023-03-14T00:21:10;38.33;36.45;41.47;;
69619;Laerm;57653;51.434;5.984;2023-03-14T00:21:21;37.30;35.62;39.89;;
69619;Laerm;57653;51.434;5.984;2023-03-14T00:21:31;36.51;34.73;38.10;;
69619;Laerm;57653;51.434;5.984;2023-03-14T00:21:41;36.44;34.58;38.54;;
69619;Laerm;57653;51.434;5.984;2023-03-14T00:21:52;37.18;35.60;38.52;;
69619;Laerm;57653;51.434;5.984;2023-03-14T00:22:02;36.09;34.29;37.95;;
69619;Laerm;57653;51.434;5.984;2023-03-14T00:22:12;35.06;33.81;36.93;;
69619;Laerm;57653;51.434;5.984;2023-03-14T00:22:22;35.57;34.11;37.78;;
69619;Laerm;57653;51.434;5.984;2023-03-14T00:22:36;37.50;34.23;54.26;;
69619;Laerm;57653;51.434;5.984;2023-03-14T00:22:47;35.63;33.34;50.59;;
69619;Laerm;57653;51.434;5.984;2023-03-14T00:22:57;34.51;33.36;36.09;;
69619;Laerm;57653;51.434;5.984;2023-03-14T00:23:07;34.65;33.46;35.69;;
69619;Laerm;57653;51.434;5.984;2023-03-14T00:23:18;35.03;33.40;36.83;;
69619;Laerm;57653;51.434;5.984;2023-03-14T00:23:28;35.68;33.68;37.29;;
69619;Laerm;57653;51.434;5.984;2023-03-14T00:23:40;35.45;34.13;36.77;;
69619;Laerm;57653;51.434;5.984;2023-03-14T00:23:54;34.88;33.47;36.56;;
69619;Laerm;57653;51.434;5.984;2023-03-14T00:24:04;35.10;33.52;36.76;;
69619;Laerm;57653;51.434;5.984;2023-03-14T00:24:14;35.03;33.58;36.44;;
69619;Laerm;57653;51.434;5.984;2023-03-14T00:24:24;35.46;33.79;37.32;;
69619;Laerm;57653;51.434;5.984;2023-03-14T00:24:35;35.59;34.14;36.79;;
69619;Laerm;57653;51.434;5.984;2023-03-14T00:24:45;36.22;34.69;37.47;;
69619;Laerm;57653;51.434;5.984;2023-03-14T00:24:55;36.16;34.92;37.63;;
69619;Laerm;57653;51.434;5.984;2023-03-14T00:25:06;37.38;35.06;44.62;;
69619;Laerm;57653;51.434;5.984;2023-03-14T00:25:17;36.87;34.61;42.05;;
69619;Laerm;57653;51.434;5.984;2023-03-14T00:25:27;37.91;35.57;48.06;;
69619;Laerm;57653;51.434;5.984;2023-03-14T00:25:37;38.62;35.60;41.36;;
69619;Laerm;57653;51.434;5.984;2023-03-14T00:25:48;36.75;34.46;50.29;;
69619;Laerm;57653;51.434;5.984;2023-03-14T00:26:01;38.67;35.21;52.53;;
69619;Laerm;57653;51.434;5.984;2023-03-14T00:26:13;35.96;34.24;47.98;;
69619;Laerm;57653;51.434;5.984;2023-03-14T00:26:24;35.22;33.70;36.38;;
69619;Laerm;57653;51.434;5.984;2023-03-14T00:26:34;35.30;33.84;36.57;;
69619;Laerm;57653;51.434;5.984;2023-03-14T00:26:44;35.18;33.82;36.36;;
69619;Laerm;57653;51.434;5.984;2023-03-14T00:26:55;35.03;33.38;36.25;;
69619;Laerm;57653;51.434;5.984;2023-03-14T00:27:05;35.47;33.91;37.08;;
69619;Laerm;57653;51.434;5.984;2023-03-14T00:27:15;34.78;33.17;36.11;;
69619;Laerm;57653;51.434;5.984;2023-03-14T00:27:25;34.12;32.81;35.58;;
69619;Laerm;57653;51.434;5.984;2023-03-14T00:27:36;33.99;32.63;37.69;;
69619;Laerm;57653;51.434;5.984;2023-03-14T00:27:46;34.35;32.71;36.50;;
69619;Laerm;57653;51.434;5.984;2023-03-14T00:27:57;35.55;33.74;37.19;;
69619;Laerm;57653;51.434;5.984;2023-03-14T00:28:07;35.02;33.34;36.24;;
69619;Laerm;57653;51.434;5.984;2023-03-14T00:28:17;35.25;33.61;42.58;;
69619;Laerm;57653;51.434;5.984;2023-03-14T00:28:28;34.52;33.04;36.53;;
69619;Laerm;57653;51.434;5.984;2023-03-14T00:28:38;35.95;33.71;52.68;;
69619;Laerm;57653;51.434;5.984;2023-03-14T00:28:52;35.89;33.97;43.67;;
69619;Laerm;57653;51.434;5.984;2023-03-14T00:29:03;34.68;32.75;40.50;;
69619;Laerm;57653;51.434;5.984;2023-03-14T00:29:13;34.44;33.03;35.74;;
69619;Laerm;57653;51.434;5.984;2023-03-14T00:29:23;35.10;33.89;36.24;;
69619;Laerm;57653;51.434;5.984;2023-03-14T00:29:33;35.18;33.07;45.86;;
69619;Laerm;57653;51.434;5.984;2023-03-14T00:29:44;38.81;33.48;54.47;;
69619;Laerm;57653;51.434;5.984;2023-03-14T00:29:54;38.23;34.48;52.62;;
69619;Laerm;57653;51.434;5.984;2023-03-14T00:30:05;40.76;35.92;56.13;;
69619;Laerm;57653;51.434;5.984;2023-03-14T00:30:17;37.72;35.42;42.58;;
69619;Laerm;57653;51.434;5.984;2023-03-14T00:30:28;38.15;35.17;47.61;;
69619;Laerm;57653;51.434;5.984;2023-03-14T00:30:38;37.03;34.10;50.62;;
69619;Laerm;57653;51.434;5.984;2023-03-14T00:30:48;37.26;35.29;39.41;;
69619;Laerm;57653;51.434;5.984;2023-03-14T00:30:59;36.87;34.62;39.05;;
69619;Laerm;57653;51.434;5.984;2023-03-14T00:31:13;36.06;34.20;37.77;;
69619;Laerm;57653;51.434;5.984;2023-03-14T00:31:23;36.23;34.25;38.30;;
69619;Laerm;57653;51.434;5.984;2023-03-14T00:31:33;35.68;33.87;40.44;;
69619;Laerm;57653;51.434;5.984;2023-03-14T00:31:45;34.94;33.03;36.87;;
69619;Laerm;57653;51.434;5.984;2023-03-14T00:31:56;34.60;33.09;36.93;;
69619;Laerm;57653;51.434;5.984;2023-03-14T00:32:06;37.76;34.91;39.83;;
69619;Laerm;57653;51.434;5.984;2023-03-14T00:32:16;37.60;35.67;40.36;;
69619;Laerm;57653;51.434;5.984;2023-03-14T00:32:27;37.25;33.88;44.15;;
69619;Laerm;57653;51.434;5.984;2023-03-14T00:32:37;36.44;34.55;47.89;;
69619;Laerm;57653;51.434;5.984;2023-03-14T00:32:47;36.16;34.34;38.87;;
69619;Laerm;57653;51.434;5.984;2023-03-14T00:32:57;35.79;33.98;38.23;;
69619;Laerm;57653;51.434;5.984;2023-03-14T00:33:08;36.17;34.50;38.88;;
69619;Laerm;57653;51.434;5.984;2023-03-14T00:33:18;37.64;35.14;39.75;;
69619;Laerm;57653;51.434;5.984;2023-03-14T00:33:28;40.35;35.00;56.33;;
69619;Laerm;57653;51.434;5.984;2023-03-14T00:33:38;37.81;35.44;44.14;;
69619;Laerm;57653;51.434;5.984;2023-03-14T00:33:51;37.18;35.42;38.66;;
69619;Laerm;57653;51.434;5.984;2023-03-14T00:34:01;36.21;33.84;38.45;;
69619;Laerm;57653;51.434;5.984;2023-03-14T00:34:11;36.88;35.09;39.90;;
69619;Laerm;57653;51.434;5.984;2023-03-14T00:34:22;39.63;37.16;48.03;;
69619;Laerm;57653;51.434;5.984;2023-03-14T00:34:32;40.65;35.53;62.50;;
69619;Laerm;57653;51.434;5.984;2023-03-14T00:34:44;39.35;33.38;55.94;;
69619;Laerm;57653;51.434;5.984;2023-03-14T00:34:54;34.28;32.84;36.26;;
69619;Laerm;57653;51.434;5.984;2023-03-14T00:35:04;34.14;32.68;38.63;;
69619;Laerm;57653;51.434;5.984;2023-03-14T00:35:15;34.48;32.66;42.49;;
69619;Laerm;57653;51.434;5.984;2023-03-14T00:35:25;33.97;32.62;35.33;;
69619;Laerm;57653;51.434;5.984;2023-03-14T00:35:35;33.98;32.52;35.76;;
69619;Laerm;57653;51.434;5.984;2023-03-14T00:35:59;33.53;32.31;34.93;;
69619;Laerm;57653;51.434;5.984;2023-03-14T00:36:14;34.58;32.29;36.27;;
69619;Laerm;57653;51.434;5.984;2023-03-14T00:36:25;33.83;32.28;37.72;;
69619;Laerm;57653;51.434;5.984;2023-03-14T00:36:35;33.64;32.34;36.60;;
69619;Laerm;57653;51.434;5.984;2023-03-14T00:36:45;33.59;31.96;43.20;;
69619;Laerm;57653;51.434;5.984;2023-03-14T00:36:56;33.79;32.19;42.99;;
69619;Laerm;57653;51.434;5.984;2023-03-14T00:37:06;33.37;31.78;41.34;;
69619;Laerm;57653;51.434;5.984;2023-03-14T00:37:16;33.46;32.26;35.09;;
69619;Laerm;57653;51.434;5.984;2023-03-14T00:37:27;33.36;32.01;34.64;;
69619;Laerm;57653;51.434;5.984;2023-03-14T00:37:37;33.57;32.39;35.34;;
69619;Laerm;57653;51.434;5.984;2023-03-14T00:37:47;33.77;32.63;35.01;;
69619;Laerm;57653;51.434;5.984;2023-03-14T00:37:58;34.20;32.80;41.30;;
69619;Laerm;57653;51.434;5.984;2023-03-14T00:38:08;33.83;32.44;39.65;;
69619;Laerm;57653;51.434;5.984;2023-03-14T00:38:18;34.82;33.04;38.92;;
69619;Laerm;57653;51.434;5.984;2023-03-14T00:38:31;35.40;33.41;43.68;;
69619;Laerm;57653;51.434;5.984;2023-03-14T00:38:43;39.24;33.75;60.43;;
69619;Laerm;57653;51.434;5.984;2023-03-14T00:38:53;35.26;33.58;38.07;;
69619;Laerm;57653;51.434;5.984;2023-03-14T00:39:04;36.21;34.56;42.29;;
69619;Laerm;57653;51.434;5.984;2023-03-14T00:39:14;36.08;34.45;38.17;;
69619;Laerm;57653;51.434;5.984;2023-03-14T00:39:25;35.02;33.40;36.84;;
69619;Laerm;57653;51.434;5.984;2023-03-14T00:39:35;35.16;33.19;38.78;;
69619;Laerm;57653;51.434;5.984;2023-03-14T00:39:45;34.58;33.08;41.08;;
69619;Laerm;57653;51.434;5.984;2023-03-14T00:39:55;34.62;32.90;39.10;;
69619;Laerm;57653;51.434;5.984;2023-03-14T00:40:06;34.77;32.85;42.21;;
69619;Laerm;57653;51.434;5.984;2023-03-14T00:40:17;35.10;32.67;48.56;;
69619;Laerm;57653;51.434;5.984;2023-03-14T00:40:27;33.81;32.39;35.18;;
69619;Laerm;57653;51.434;5.984;2023-03-14T00:40:38;34.68;32.51;44.65;;
69619;Laerm;57653;51.434;5.984;2023-03-14T00:40:49;34.06;32.83;35.90;;
69619;Laerm;57653;51.434;5.984;2023-03-14T00:41:03;34.23;32.81;38.27;;
69619;Laerm;57653;51.434;5.984;2023-03-14T00:41:14;33.79;32.26;39.95;;
69619;Laerm;57653;51.434;5.984;2023-03-14T00:41:25;34.23;32.87;35.37;;
69619;Laerm;57653;51.434;5.984;2023-03-14T00:41:35;34.44;32.69;39.03;;
69619;Laerm;57653;51.434;5.984;2023-03-14T00:41:45;38.16;32.97;54.50;;
69619;Laerm;57653;51.434;5.984;2023-03-14T00:41:55;34.94;32.67;47.86;;
69619;Laerm;57653;51.434;5.984;2023-03-14T00:42:06;33.82;32.64;35.32;;
69619;Laerm;57653;51.434;5.984;2023-03-14T00:42:16;33.85;32.25;35.27;;
69619;Laerm;57653;51.434;5.984;2023-03-14T00:42:26;34.53;32.89;36.03;;
69619;Laerm;57653;51.434;5.984;2023-03-14T00:42:37;35.35;33.92;37.72;;
69619;Laerm;57653;51.434;5.984;2023-03-14T00:42:47;35.24;33.70;36.71;;
69619;Laerm;57653;51.434;5.984;2023-03-14T00:42:57;34.78;33.21;36.37;;
69619;Laerm;57653;51.434;5.984;2023-03-14T00:43:08;34.37;32.57;41.80;;
69619;Laerm;57653;51.434;5.984;2023-03-14T00:43:18;34.71;33.01;39.95;;
69619;Laerm;57653;51.434;5.984;2023-03-14T00:43:28;34.27;32.62;37.46;;
69619;Laerm;57653;51.434;5.984;2023-03-14T00:43:39;34.95;32.94;37.08;;
69619;Laerm;57653;51.434;5.984;2023-03-14T00:43:49;35.44;33.34;37.38;;
69619;Laerm;57653;51.434;5.984;2023-03-14T00:44:00;34.52;33.24;36.03;;
69619;Laerm;57653;51.434;5.984;2023-03-14T00:44:10;38.25;32.75;53.32;;
69619;Laerm;57653;51.434;5.984;2023-03-14T00:44:20;35.12;32.86;48.91;;
69619;Laerm;57653;51.434;5.984;2023-03-14T00:44:30;34.36;32.55;45.73;;
69619;Laerm;57653;51.434;5.984;2023-03-14T00:44:42;34.09;32.81;35.29;;
69619;Laerm;57653;51.434;5.984;2023-03-14T00:44:52;33.58;32.42;34.96;;
69619;Laerm;57653;51.434;5.984;2023-03-14T00:45:02;33.69;32.56;34.76;;
69619;Laerm;57653;51.434;5.984;2023-03-14T00:45:13;33.90;32.62;35.13;;
69619;Laerm;57653;51.434;5.984;2023-03-14T00:45:24;34.87;33.24;37.20;;
69619;Laerm;57653;51.434;5.984;2023-03-14T00:45:34;34.89;33.35;37.01;;
69619;Laerm;57653;51.434;5.984;2023-03-14T00:45:45;34.77;33.35;40.08;;
69619;Laerm;57653;51.434;5.984;2023-03-14T00:45:55;34.77;33.48;36.05;;
69619;Laerm;57653;51.434;5.984;2023-03-14T00:46:05;36.51;33.16;52.10;;
69619;Laerm;57653;51.434;5.984;2023-03-14T00:46:16;34.58;32.72;42.89;;
69619;Laerm;57653;51.434;5.984;2023-03-14T00:46:26;34.41;32.92;40.24;;
69619;Laerm;57653;51.434;5.984;2023-03-14T00:46:37;34.37;33.00;35.75;;
69619;Laerm;57653;51.434;5.984;2023-03-14T00:46:47;33.65;32.52;34.96;;
69619;Laerm;57653;51.434;5.984;2023-03-14T00:46:58;34.24;32.69;36.22;;
69619;Laerm;57653;51.434;5.984;2023-03-14T00:47:09;34.19;33.00;35.76;;
69619;Laerm;57653;51.434;5.984;2023-03-14T00:47:19;33.96;32.61;35.80;;
69619;Laerm;57653;51.434;5.984;2023-03-14T00:47:29;33.69;32.52;35.00;;
69619;Laerm;57653;51.434;5.984;2023-03-14T00:47:39;33.72;32.46;36.00;;
69619;Laerm;57653;51.434;5.984;2023-03-14T00:47:50;33.93;32.62;35.24;;
69619;Laerm;57653;51.434;5.984;2023-03-14T00:48:00;34.07;32.53;35.63;;
69619;Laerm;57653;51.434;5.984;2023-03-14T00:48:10;34.30;32.75;41.21;;
69619;Laerm;57653;51.434;5.984;2023-03-14T00:48:21;33.77;32.62;34.97;;
69619;Laerm;57653;51.434;5.984;2023-03-14T00:48:31;33.50;32.04;34.74;;
69619;Laerm;57653;51.434;5.984;2023-03-14T00:48:41;33.64;32.39;35.27;;
69619;Laerm;57653;51.434;5.984;2023-03-14T00:48:51;35.21;33.36;36.92;;
69619;Laerm;57653;51.434;5.984;2023-03-14T00:49:02;35.45;33.76;37.33;;
69619;Laerm;57653;51.434;5.984;2023-03-14T00:49:12;35.18;33.96;37.20;;
69619;Laerm;57653;51.434;5.984;2023-03-14T00:49:22;35.16;33.76;36.70;;
69619;Laerm;57653;51.434;5.984;2023-03-14T00:49:32;34.72;33.43;36.39;;
69619;Laerm;57653;51.434;5.984;2023-03-14T00:49:43;34.74;33.13;36.41;;
69619;Laerm;57653;51.434;5.984;2023-03-14T00:49:53;35.15;33.45;47.51;;
69619;Laerm;57653;51.434;5.984;2023-03-14T00:50:03;34.63;33.14;35.94;;
69619;Laerm;57653;51.434;5.984;2023-03-14T00:50:14;34.51;32.85;47.04;;
69619;Laerm;57653;51.434;5.984;2023-03-14T00:50:24;35.22;33.92;36.84;;
69619;Laerm;57653;51.434;5.984;2023-03-14T00:50:35;36.99;34.80;39.31;;
69619;Laerm;57653;51.434;5.984;2023-03-14T00:50:45;42.51;37.18;47.55;;
69619;Laerm;57653;51.434;5.984;2023-03-14T00:50:56;56.73;46.82;63.33;;
69619;Laerm;57653;51.434;5.984;2023-03-14T00:51:07;60.05;57.87;62.63;;
69619;Laerm;57653;51.434;5.984;2023-03-14T00:51:18;57.75;51.39;60.54;;
69619;Laerm;57653;51.434;5.984;2023-03-14T00:51:28;45.40;33.69;52.63;;
69619;Laerm;57653;51.434;5.984;2023-03-14T00:51:38;34.07;32.81;35.08;;
69619;Laerm;57653;51.434;5.984;2023-03-14T00:51:48;34.25;32.81;35.47;;
69619;Laerm;57653;51.434;5.984;2023-03-14T00:51:59;34.07;32.90;35.44;;
69619;Laerm;57653;51.434;5.984;2023-03-14T00:52:09;34.07;32.65;35.28;;
69619;Laerm;57653;51.434;5.984;2023-03-14T00:52:19;34.31;32.63;35.83;;
69619;Laerm;57653;51.434;5.984;2023-03-14T00:52:30;34.29;32.68;36.04;;
69619;Laerm;57653;51.434;5.984;2023-03-14T00:52:40;34.06;32.72;35.47;;
69619;Laerm;57653;51.434;5.984;2023-03-14T00:52:50;33.52;32.26;34.61;;
69619;Laerm;57653;51.434;5.984;2023-03-14T00:53:01;34.00;32.85;35.52;;
69619;Laerm;57653;51.434;5.984;2023-03-14T00:53:11;34.10;32.98;35.66;;
69619;Laerm;57653;51.434;5.984;2023-03-14T00:53:21;33.62;32.62;34.77;;
69619;Laerm;57653;51.434;5.984;2023-03-14T00:53:35;33.38;32.21;34.53;;
69619;Laerm;57653;51.434;5.984;2023-03-14T00:53:45;33.75;32.25;35.29;;
69619;Laerm;57653;51.434;5.984;2023-03-14T00:53:59;34.22;32.26;36.04;;
69619;Laerm;57653;51.434;5.984;2023-03-14T00:54:09;34.64;32.93;37.47;;
69619;Laerm;57653;51.434;5.984;2023-03-14T00:54:19;38.19;33.17;56.05;;
69619;Laerm;57653;51.434;5.984;2023-03-14T00:54:29;34.38;32.76;42.30;;
69619;Laerm;57653;51.434;5.984;2023-03-14T00:54:40;34.33;32.87;39.41;;
69619;Laerm;57653;51.434;5.984;2023-03-14T00:54:50;36.51;33.70;41.21;;
69619;Laerm;57653;51.434;5.984;2023-03-14T00:55:01;57.09;40.59;61.72;;
69619;Laerm;57653;51.434;5.984;2023-03-14T00:55:11;60.01;57.41;62.46;;
69619;Laerm;57653;51.434;5.984;2023-03-14T00:55:21;59.01;56.85;64.08;;
69619;Laerm;57653;51.434;5.984;2023-03-14T00:55:32;53.28;43.78;59.59;;
69619;Laerm;57653;51.434;5.984;2023-03-14T00:55:45;41.37;36.63;47.48;;
69619;Laerm;57653;51.434;5.984;2023-03-14T00:55:56;38.60;36.26;42.34;;
69619;Laerm;57653;51.434;5.984;2023-03-14T00:56:07;37.28;35.07;41.83;;
69619;Laerm;57653;51.434;5.984;2023-03-14T00:56:18;35.60;33.93;44.04;;
69619;Laerm;57653;51.434;5.984;2023-03-14T00:56:28;36.16;33.53;50.07;;
69619;Laerm;57653;51.434;5.984;2023-03-14T00:56:39;33.99;32.74;35.27;;
69619;Laerm;57653;51.434;5.984;2023-03-14T00:56:49;33.81;32.40;34.99;;
69619;Laerm;57653;51.434;5.984;2023-03-14T00:56:59;35.38;32.87;51.37;;
69619;Laerm;57653;51.434;5.984;2023-03-14T00:57:09;35.27;33.88;36.96;;
69619;Laerm;57653;51.434;5.984;2023-03-14T00:57:20;34.64;32.73;43.02;;
69619;Laerm;57653;51.434;5.984;2023-03-14T00:57:30;35.55;33.03;45.04;;
69619;Laerm;57653;51.434;5.984;2023-03-14T00:57:40;33.98;32.61;40.86;;
69619;Laerm;57653;51.434;5.984;2023-03-14T00:57:50;33.67;32.52;34.91;;
69619;Laerm;57653;51.434;5.984;2023-03-14T00:58:01;33.52;32.36;40.44;;
69619;Laerm;57653;51.434;5.984;2023-03-14T00:58:12;33.50;32.13;36.91;;
69619;Laerm;57653;51.434;5.984;2023-03-14T00:58:22;33.38;32.15;37.40;;
69619;Laerm;57653;51.434;5.984;2023-03-14T00:58:32;33.31;31.74;34.41;;
69619;Laerm;57653;51.434;5.984;2023-03-14T00:58:43;33.76;31.42;37.32;;
69619;Laerm;57653;51.434;5.984;2023-03-14T00:58:54;33.77;32.28;36.14;;
69619;Laerm;57653;51.434;5.984;2023-03-14T00:59:04;33.33;31.96;43.05;;
69619;Laerm;57653;51.434;5.984;2023-03-14T00:59:15;33.18;31.62;35.37;;
69619;Laerm;57653;51.434;5.984;2023-03-14T00:59:25;33.21;31.84;34.92;;
69619;Laerm;57653;51.434;5.984;2023-03-14T00:59:36;33.45;32.07;35.27;;
69619;Laerm;57653;51.434;5.984;2023-03-14T00:59:46;33.62;32.37;35.15;;
69619;Laerm;57653;51.434;5.984;2023-03-14T00:59:56;33.68;32.13;34.97;;
69619;Laerm;57653;51.434;5.984;2023-03-14T01:00:07;33.44;32.16;35.00;;
69619;Laerm;57653;51.434;5.984;2023-03-14T01:00:22;33.55;32.30;34.89;;